sensor_id;sensor_type;location;lat;lon;timestamp;P1;durP1;ratioP1;P2;durP2;ratioP2
39176;SDS011;24904;52.208;21.192;2023-04-08T00:00:35;8.70;;;6.40;;
39176;SDS011;24904;52.208;21.192;2023-04-08T00:05:38;10.50;;;6.00;;
39176;SDS011;24904;52.208;21.192;2023-04-08T00:10:41;9.80;;;6.30;;
39176;SDS011;24904;52.208;21.192;2023-04-08T00:15:45;8.40;;;6.10;;
39176;SDS011;24904;52.208;21.192;2023-04-08T00:20:48;10.10;;;6.40;;
39176;SDS011;24904;52.208;21.192;2023-04-08T00:25:51;8.40;;;6.50;;
39176;SDS011;24904;52.208;21.192;2023-04-08T00:30:54;10.20;;;7.20;;
39176;SDS011;24904;52.208;21.192;2023-04-08T00:35:57;9.50;;;6.40;;
39176;SDS011;24904;52.208;21.192;2023-04-08T00:41:00;10.30;;;6.80;;
39176;SDS011;24904;52.208;21.192;2023-04-08T00:46:03;11.30;;;7.50;;
39176;SDS011;24904;52.208;21.192;2023-04-08T00:51:07;11.20;;;7.70;;
39176;SDS011;24904;52.208;21.192;2023-04-08T00:56:10;9.20;;;6.80;;
39176;SDS011;24904;52.208;21.192;2023-04-08T01:01:14;11.40;;;8.10;;
39176;SDS011;24904;52.208;21.192;2023-04-08T01:06:27;13.30;;;8.30;;
39176;SDS011;24904;52.208;21.192;2023-04-08T01:11:37;12.10;;;8.10;;
39176;SDS011;24904;52.208;21.192;2023-04-08T01:25:20;11.20;;;7.90;;
39176;SDS011;24904;52.208;21.192;2023-04-08T01:30:27;9.80;;;7.40;;
39176;SDS011;24904;52.208;21.192;2023-04-08T01:35:32;13.70;;;8.50;;
39176;SDS011;24904;52.208;21.192;2023-04-08T01:40:36;12.50;;;8.70;;
39176;SDS011;24904;52.208;21.192;2023-04-08T01:45:41;11.20;;;8.00;;
39176;SDS011;24904;52.208;21.192;2023-04-08T01:59:33;11.40;;;7.60;;
39176;SDS011;24904;52.208;21.192;2023-04-08T02:04:40;12.60;;;8.30;;
39176;SDS011;24904;52.208;21.192;2023-04-08T02:09:43;12.80;;;8.00;;
39176;SDS011;24904;52.208;21.192;2023-04-08T02:14:46;11.10;;;8.20;;
39176;SDS011;24904;52.208;21.192;2023-04-08T02:19:51;12.10;;;8.00;;
39176;SDS011;24904;52.208;21.192;2023-04-08T02:25:00;11.50;;;8.10;;
39176;SDS011;24904;52.208;21.192;2023-04-08T02:30:06;12.00;;;8.30;;
39176;SDS011;24904;52.208;21.192;2023-04-08T02:35:12;12.70;;;8.70;;
39176;SDS011;24904;52.208;21.192;2023-04-08T02:40:27;12.90;;;9.10;;
39176;SDS011;24904;52.208;21.192;2023-04-08T02:45:31;10.60;;;7.40;;
39176;SDS011;24904;52.208;21.192;2023-04-08T02:50:38;11.40;;;7.80;;
39176;SDS011;24904;52.208;21.192;2023-04-08T02:55:41;12.20;;;8.70;;
39176;SDS011;24904;52.208;21.192;2023-04-08T03:00:44;13.70;;;9.10;;
39176;SDS011;24904;52.208;21.192;2023-04-08T03:05:47;14.50;;;9.40;;
39176;SDS011;24904;52.208;21.192;2023-04-08T03:10:50;15.00;;;10.00;;
39176;SDS011;24904;52.208;21.192;2023-04-08T03:15:53;15.40;;;10.00;;
39176;SDS011;24904;52.208;21.192;2023-04-08T03:20:56;20.50;;;10.50;;
39176;SDS011;24904;52.208;21.192;2023-04-08T03:25:59;14.40;;;10.00;;
39176;SDS011;24904;52.208;21.192;2023-04-08T03:31:02;14.20;;;9.30;;
39176;SDS011;24904;52.208;21.192;2023-04-08T03:36:06;12.70;;;8.60;;
39176;SDS011;24904;52.208;21.192;2023-04-08T03:41:10;14.00;;;8.60;;
39176;SDS011;24904;52.208;21.192;2023-04-08T03:46:13;14.00;;;8.90;;
39176;SDS011;24904;52.208;21.192;2023-04-08T03:51:16;16.90;;;10.10;;
39176;SDS011;24904;52.208;21.192;2023-04-08T03:56:19;17.60;;;11.00;;
39176;SDS011;24904;52.208;21.192;2023-04-08T04:01:22;15.70;;;10.60;;
39176;SDS011;24904;52.208;21.192;2023-04-08T04:06:25;17.50;;;11.40;;
39176;SDS011;24904;52.208;21.192;2023-04-08T04:11:28;19.50;;;11.40;;
39176;SDS011;24904;52.208;21.192;2023-04-08T04:16:31;19.60;;;12.30;;
39176;SDS011;24904;52.208;21.192;2023-04-08T04:21:34;26.90;;;20.20;;
39176;SDS011;24904;52.208;21.192;2023-04-08T04:26:37;24.00;;;15.20;;
39176;SDS011;24904;52.208;21.192;2023-04-08T04:31:42;19.00;;;12.80;;
39176;SDS011;24904;52.208;21.192;2023-04-08T04:36:46;16.40;;;11.30;;
39176;SDS011;24904;52.208;21.192;2023-04-08T04:41:49;17.40;;;10.70;;
39176;SDS011;24904;52.208;21.192;2023-04-08T04:46:52;17.80;;;11.60;;
39176;SDS011;24904;52.208;21.192;2023-04-08T04:51:55;20.60;;;11.30;;
39176;SDS011;24904;52.208;21.192;2023-04-08T04:56:58;16.60;;;11.10;;
39176;SDS011;24904;52.208;21.192;2023-04-08T05:02:01;18.80;;;12.40;;
39176;SDS011;24904;52.208;21.192;2023-04-08T05:07:04;16.20;;;11.00;;
39176;SDS011;24904;52.208;21.192;2023-04-08T05:12:07;20.10;;;12.10;;
39176;SDS011;24904;52.208;21.192;2023-04-08T05:17:10;18.20;;;11.90;;
39176;SDS011;24904;52.208;21.192;2023-04-08T05:22:13;21.80;;;13.60;;
39176;SDS011;24904;52.208;21.192;2023-04-08T05:27:16;18.80;;;12.20;;
39176;SDS011;24904;52.208;21.192;2023-04-08T05:32:21;26.90;;;12.70;;
39176;SDS011;24904;52.208;21.192;2023-04-08T05:37:24;23.10;;;13.70;;
39176;SDS011;24904;52.208;21.192;2023-04-08T05:42:27;20.00;;;13.00;;
39176;SDS011;24904;52.208;21.192;2023-04-08T05:47:30;19.90;;;11.80;;
39176;SDS011;24904;52.208;21.192;2023-04-08T05:52:34;18.20;;;12.80;;
39176;SDS011;24904;52.208;21.192;2023-04-08T05:57:37;18.70;;;11.60;;
39176;SDS011;24904;52.208;21.192;2023-04-08T06:02:41;20.70;;;12.40;;
39176;SDS011;24904;52.208;21.192;2023-04-08T06:07:44;18.50;;;12.60;;
39176;SDS011;24904;52.208;21.192;2023-04-08T06:12:47;17.40;;;10.80;;
39176;SDS011;24904;52.208;21.192;2023-04-08T06:17:50;17.40;;;11.60;;
39176;SDS011;24904;52.208;21.192;2023-04-08T06:22:54;19.30;;;11.40;;
39176;SDS011;24904;52.208;21.192;2023-04-08T06:27:57;15.30;;;10.70;;
39176;SDS011;24904;52.208;21.192;2023-04-08T06:33:00;17.80;;;10.90;;
39176;SDS011;24904;52.208;21.192;2023-04-08T06:38:03;15.40;;;10.30;;
39176;SDS011;24904;52.208;21.192;2023-04-08T06:43:06;15.50;;;9.60;;
39176;SDS011;24904;52.208;21.192;2023-04-08T06:48:13;14.60;;;9.90;;
39176;SDS011;24904;52.208;21.192;2023-04-08T06:53:16;16.00;;;8.80;;
39176;SDS011;24904;52.208;21.192;2023-04-08T06:58:19;13.80;;;8.70;;
39176;SDS011;24904;52.208;21.192;2023-04-08T07:03:22;12.60;;;8.60;;
39176;SDS011;24904;52.208;21.192;2023-04-08T07:08:25;11.10;;;8.10;;
39176;SDS011;24904;52.208;21.192;2023-04-08T07:13:29;13.20;;;7.60;;
39176;SDS011;24904;52.208;21.192;2023-04-08T07:18:36;9.90;;;6.60;;
39176;SDS011;24904;52.208;21.192;2023-04-08T07:23:39;10.00;;;6.70;;
39176;SDS011;24904;52.208;21.192;2023-04-08T07:28:42;9.40;;;6.40;;
39176;SDS011;24904;52.208;21.192;2023-04-08T07:33:45;10.30;;;6.80;;
39176;SDS011;24904;52.208;21.192;2023-04-08T07:38:48;9.40;;;6.50;;
39176;SDS011;24904;52.208;21.192;2023-04-08T07:43:51;9.30;;;6.70;;
39176;SDS011;24904;52.208;21.192;2023-04-08T07:48:54;9.20;;;6.70;;
39176;SDS011;24904;52.208;21.192;2023-04-08T07:53:58;8.90;;;6.20;;
39176;SDS011;24904;52.208;21.192;2023-04-08T07:59:01;9.10;;;6.40;;
39176;SDS011;24904;52.208;21.192;2023-04-08T08:04:04;9.70;;;7.00;;
39176;SDS011;24904;52.208;21.192;2023-04-08T08:09:07;9.30;;;6.20;;
39176;SDS011;24904;52.208;21.192;2023-04-08T08:14:10;9.20;;;6.60;;
39176;SDS011;24904;52.208;21.192;2023-04-08T08:19:14;11.30;;;6.60;;
39176;SDS011;24904;52.208;21.192;2023-04-08T08:24:17;10.20;;;6.90;;
39176;SDS011;24904;52.208;21.192;2023-04-08T08:29:20;9.40;;;6.50;;
39176;SDS011;24904;52.208;21.192;2023-04-08T08:34:23;10.60;;;7.10;;
39176;SDS011;24904;52.208;21.192;2023-04-08T08:39:26;9.60;;;7.00;;
39176;SDS011;24904;52.208;21.192;2023-04-08T08:44:29;10.00;;;7.20;;
39176;SDS011;24904;52.208;21.192;2023-04-08T08:49:32;9.50;;;7.00;;
39176;SDS011;24904;52.208;21.192;2023-04-08T08:54:35;9.50;;;6.90;;
39176;SDS011;24904;52.208;21.192;2023-04-08T08:59:38;11.30;;;7.90;;
39176;SDS011;24904;52.208;21.192;2023-04-08T09:04:41;8.30;;;6.10;;
39176;SDS011;24904;52.208;21.192;2023-04-08T09:09:59;8.50;;;6.60;;
39176;SDS011;24904;52.208;21.192;2023-04-08T09:15:06;8.70;;;6.70;;
39176;SDS011;24904;52.208;21.192;2023-04-08T09:20:11;8.10;;;6.10;;
39176;SDS011;24904;52.208;21.192;2023-04-08T09:25:22;10.30;;;6.50;;
39176;SDS011;24904;52.208;21.192;2023-04-08T09:30:26;11.70;;;6.60;;
39176;SDS011;24904;52.208;21.192;2023-04-08T09:35:29;8.40;;;6.40;;
39176;SDS011;24904;52.208;21.192;2023-04-08T09:40:33;12.60;;;6.80;;
39176;SDS011;24904;52.208;21.192;2023-04-08T09:45:37;7.90;;;6.60;;
39176;SDS011;24904;52.208;21.192;2023-04-08T09:50:43;9.50;;;6.80;;
39176;SDS011;24904;52.208;21.192;2023-04-08T09:55:52;7.30;;;6.10;;
39176;SDS011;24904;52.208;21.192;2023-04-08T10:00:57;9.10;;;5.90;;
39176;SDS011;24904;52.208;21.192;2023-04-08T10:06:01;10.50;;;6.60;;
39176;SDS011;24904;52.208;21.192;2023-04-08T10:11:04;8.60;;;6.60;;
39176;SDS011;24904;52.208;21.192;2023-04-08T10:21:39;8.30;;;6.00;;
39176;SDS011;24904;52.208;21.192;2023-04-08T10:26:47;8.30;;;6.10;;
39176;SDS011;24904;52.208;21.192;2023-04-08T10:31:50;8.80;;;6.30;;
39176;SDS011;24904;52.208;21.192;2023-04-08T10:36:54;8.30;;;5.70;;
39176;SDS011;24904;52.208;21.192;2023-04-08T10:42:00;6.30;;;5.60;;
39176;SDS011;24904;52.208;21.192;2023-04-08T10:47:04;8.70;;;5.60;;
39176;SDS011;24904;52.208;21.192;2023-04-08T10:52:07;8.30;;;5.70;;
39176;SDS011;24904;52.208;21.192;2023-04-08T10:57:10;8.40;;;6.10;;
39176;SDS011;24904;52.208;21.192;2023-04-08T11:02:14;7.70;;;5.60;;
39176;SDS011;24904;52.208;21.192;2023-04-08T11:07:19;6.50;;;5.30;;
39176;SDS011;24904;52.208;21.192;2023-04-08T11:12:22;7.10;;;5.40;;
39176;SDS011;24904;52.208;21.192;2023-04-08T11:17:26;7.40;;;5.50;;
39176;SDS011;24904;52.208;21.192;2023-04-08T11:22:30;7.50;;;5.60;;
39176;SDS011;24904;52.208;21.192;2023-04-08T11:27:34;7.50;;;5.70;;
39176;SDS011;24904;52.208;21.192;2023-04-08T11:32:38;6.80;;;5.20;;
39176;SDS011;24904;52.208;21.192;2023-04-08T11:37:41;6.30;;;4.90;;
39176;SDS011;24904;52.208;21.192;2023-04-08T11:42:45;7.00;;;5.30;;
39176;SDS011;24904;52.208;21.192;2023-04-08T11:47:48;5.60;;;4.70;;
39176;SDS011;24904;52.208;21.192;2023-04-08T11:52:51;6.60;;;4.70;;
39176;SDS011;24904;52.208;21.192;2023-04-08T11:57:55;6.40;;;4.70;;
39176;SDS011;24904;52.208;21.192;2023-04-08T12:03:04;6.90;;;4.70;;
39176;SDS011;24904;52.208;21.192;2023-04-08T12:08:07;6.70;;;4.30;;
39176;SDS011;24904;52.208;21.192;2023-04-08T12:13:10;7.70;;;4.70;;
39176;SDS011;24904;52.208;21.192;2023-04-08T12:18:13;5.80;;;4.90;;
39176;SDS011;24904;52.208;21.192;2023-04-08T12:23:17;6.20;;;4.80;;
39176;SDS011;24904;52.208;21.192;2023-04-08T12:28:20;6.30;;;4.60;;
39176;SDS011;24904;52.208;21.192;2023-04-08T12:33:23;7.10;;;5.30;;
39176;SDS011;24904;52.208;21.192;2023-04-08T12:38:26;6.80;;;4.60;;
39176;SDS011;24904;52.208;21.192;2023-04-08T12:43:29;5.80;;;4.30;;
39176;SDS011;24904;52.208;21.192;2023-04-08T12:48:33;5.70;;;4.20;;
39176;SDS011;24904;52.208;21.192;2023-04-08T12:53:36;4.80;;;4.00;;
39176;SDS011;24904;52.208;21.192;2023-04-08T12:58:40;5.60;;;4.00;;
39176;SDS011;24904;52.208;21.192;2023-04-08T13:03:43;5.40;;;4.30;;
39176;SDS011;24904;52.208;21.192;2023-04-08T13:08:47;6.70;;;4.50;;
39176;SDS011;24904;52.208;21.192;2023-04-08T13:13:50;4.90;;;3.70;;
39176;SDS011;24904;52.208;21.192;2023-04-08T13:18:53;6.60;;;4.90;;
39176;SDS011;24904;52.208;21.192;2023-04-08T13:30:49;5.80;;;4.00;;
39176;SDS011;24904;52.208;21.192;2023-04-08T13:35:52;5.50;;;4.00;;
39176;SDS011;24904;52.208;21.192;2023-04-08T13:40:55;5.20;;;4.30;;
39176;SDS011;24904;52.208;21.192;2023-04-08T13:45:58;5.70;;;4.00;;
39176;SDS011;24904;52.208;21.192;2023-04-08T13:51:01;7.30;;;4.10;;
39176;SDS011;24904;52.208;21.192;2023-04-08T13:56:04;3.70;;;3.10;;
39176;SDS011;24904;52.208;21.192;2023-04-08T14:01:08;5.10;;;3.70;;
39176;SDS011;24904;52.208;21.192;2023-04-08T14:06:11;6.00;;;3.30;;
39176;SDS011;24904;52.208;21.192;2023-04-08T14:11:14;5.50;;;4.00;;
39176;SDS011;24904;52.208;21.192;2023-04-08T14:16:17;5.70;;;4.30;;
39176;SDS011;24904;52.208;21.192;2023-04-08T14:21:20;5.50;;;4.00;;
39176;SDS011;24904;52.208;21.192;2023-04-08T14:26:24;7.60;;;4.00;;
39176;SDS011;24904;52.208;21.192;2023-04-08T14:31:27;5.40;;;4.00;;
39176;SDS011;24904;52.208;21.192;2023-04-08T14:36:30;5.00;;;3.80;;
39176;SDS011;24904;52.208;21.192;2023-04-08T14:41:33;6.80;;;4.30;;
39176;SDS011;24904;52.208;21.192;2023-04-08T14:46:36;6.10;;;4.70;;
39176;SDS011;24904;52.208;21.192;2023-04-08T14:51:39;6.80;;;5.00;;
39176;SDS011;24904;52.208;21.192;2023-04-08T14:56:42;6.30;;;4.30;;
39176;SDS011;24904;52.208;21.192;2023-04-08T15:01:46;7.00;;;4.60;;
39176;SDS011;24904;52.208;21.192;2023-04-08T15:06:49;6.60;;;4.70;;
39176;SDS011;24904;52.208;21.192;2023-04-08T15:11:52;6.90;;;4.20;;
39176;SDS011;24904;52.208;21.192;2023-04-08T15:16:55;6.30;;;4.60;;
39176;SDS011;24904;52.208;21.192;2023-04-08T15:21:58;6.10;;;3.90;;
39176;SDS011;24904;52.208;21.192;2023-04-08T15:27:02;5.80;;;3.90;;
39176;SDS011;24904;52.208;21.192;2023-04-08T15:32:05;15.30;;;4.80;;
39176;SDS011;24904;52.208;21.192;2023-04-08T15:37:08;5.70;;;4.30;;
39176;SDS011;24904;52.208;21.192;2023-04-08T15:42:11;6.30;;;4.30;;
39176;SDS011;24904;52.208;21.192;2023-04-08T15:47:14;6.90;;;4.40;;
39176;SDS011;24904;52.208;21.192;2023-04-08T15:52:17;5.50;;;4.20;;
39176;SDS011;24904;52.208;21.192;2023-04-08T15:57:20;6.70;;;4.60;;
39176;SDS011;24904;52.208;21.192;2023-04-08T16:02:26;4.80;;;3.60;;
39176;SDS011;24904;52.208;21.192;2023-04-08T16:07:29;6.20;;;4.00;;
39176;SDS011;24904;52.208;21.192;2023-04-08T16:12:32;5.40;;;3.70;;
39176;SDS011;24904;52.208;21.192;2023-04-08T16:17:35;6.20;;;3.90;;
39176;SDS011;24904;52.208;21.192;2023-04-08T16:22:39;5.90;;;4.00;;
39176;SDS011;24904;52.208;21.192;2023-04-08T16:27:42;5.60;;;3.90;;
39176;SDS011;24904;52.208;21.192;2023-04-08T16:32:45;6.00;;;4.20;;
39176;SDS011;24904;52.208;21.192;2023-04-08T16:37:48;9.60;;;5.00;;
39176;SDS011;24904;52.208;21.192;2023-04-08T16:42:51;7.20;;;4.30;;
39176;SDS011;24904;52.208;21.192;2023-04-08T16:47:55;6.80;;;4.60;;
39176;SDS011;24904;52.208;21.192;2023-04-08T16:52:58;6.90;;;4.80;;
39176;SDS011;24904;52.208;21.192;2023-04-08T16:58:01;7.70;;;5.10;;
39176;SDS011;24904;52.208;21.192;2023-04-08T17:03:04;7.40;;;5.20;;
39176;SDS011;24904;52.208;21.192;2023-04-08T17:08:07;7.60;;;5.40;;
39176;SDS011;24904;52.208;21.192;2023-04-08T17:13:10;7.80;;;5.30;;
39176;SDS011;24904;52.208;21.192;2023-04-08T17:18:13;6.60;;;4.70;;
39176;SDS011;24904;52.208;21.192;2023-04-08T17:23:16;7.40;;;5.20;;
39176;SDS011;24904;52.208;21.192;2023-04-08T17:28:19;8.60;;;5.80;;
39176;SDS011;24904;52.208;21.192;2023-04-08T17:33:23;10.10;;;6.30;;
39176;SDS011;24904;52.208;21.192;2023-04-08T17:38:26;10.40;;;7.00;;
39176;SDS011;24904;52.208;21.192;2023-04-08T17:43:29;9.50;;;6.80;;
39176;SDS011;24904;52.208;21.192;2023-04-08T17:48:32;9.50;;;6.70;;
39176;SDS011;24904;52.208;21.192;2023-04-08T17:53:35;8.20;;;5.80;;
39176;SDS011;24904;52.208;21.192;2023-04-08T17:58:38;9.10;;;6.50;;
39176;SDS011;24904;52.208;21.192;2023-04-08T18:03:41;9.10;;;6.60;;
39176;SDS011;24904;52.208;21.192;2023-04-08T18:08:45;11.20;;;6.50;;
39176;SDS011;24904;52.208;21.192;2023-04-08T18:13:48;9.80;;;6.30;;
39176;SDS011;24904;52.208;21.192;2023-04-08T18:18:51;11.30;;;7.30;;
39176;SDS011;24904;52.208;21.192;2023-04-08T18:23:54;13.50;;;8.10;;
39176;SDS011;24904;52.208;21.192;2023-04-08T18:28:57;11.60;;;8.00;;
39176;SDS011;24904;52.208;21.192;2023-04-08T18:34:00;11.20;;;8.40;;
39176;SDS011;24904;52.208;21.192;2023-04-08T18:39:03;12.60;;;8.30;;
39176;SDS011;24904;52.208;21.192;2023-04-08T18:44:06;13.60;;;9.00;;
39176;SDS011;24904;52.208;21.192;2023-04-08T18:49:09;13.50;;;9.30;;
39176;SDS011;24904;52.208;21.192;2023-04-08T18:54:13;14.70;;;9.10;;
39176;SDS011;24904;52.208;21.192;2023-04-08T18:59:16;12.00;;;8.30;;
39176;SDS011;24904;52.208;21.192;2023-04-08T19:04:19;12.50;;;8.90;;
39176;SDS011;24904;52.208;21.192;2023-04-08T19:09:22;13.50;;;9.20;;
39176;SDS011;24904;52.208;21.192;2023-04-08T19:14:25;14.70;;;10.80;;
39176;SDS011;24904;52.208;21.192;2023-04-08T19:19:28;15.50;;;10.10;;
39176;SDS011;24904;52.208;21.192;2023-04-08T19:24:31;13.70;;;9.50;;
39176;SDS011;24904;52.208;21.192;2023-04-08T19:29:35;15.50;;;10.50;;
39176;SDS011;24904;52.208;21.192;2023-04-08T19:34:38;15.90;;;11.20;;
39176;SDS011;24904;52.208;21.192;2023-04-08T19:39:42;14.90;;;10.50;;
39176;SDS011;24904;52.208;21.192;2023-04-08T19:44:45;16.40;;;10.70;;
39176;SDS011;24904;52.208;21.192;2023-04-08T19:49:48;13.90;;;10.20;;
39176;SDS011;24904;52.208;21.192;2023-04-08T19:54:51;16.10;;;10.50;;
39176;SDS011;24904;52.208;21.192;2023-04-08T19:59:55;16.80;;;11.50;;
39176;SDS011;24904;52.208;21.192;2023-04-08T20:04:58;14.60;;;10.90;;
39176;SDS011;24904;52.208;21.192;2023-04-08T20:10:01;15.00;;;10.70;;
39176;SDS011;24904;52.208;21.192;2023-04-08T20:15:04;17.90;;;10.60;;
39176;SDS011;24904;52.208;21.192;2023-04-08T20:20:09;18.40;;;12.20;;
39176;SDS011;24904;52.208;21.192;2023-04-08T20:25:13;16.50;;;12.10;;
39176;SDS011;24904;52.208;21.192;2023-04-08T20:30:17;18.30;;;12.00;;
39176;SDS011;24904;52.208;21.192;2023-04-08T20:35:20;18.30;;;11.80;;
39176;SDS011;24904;52.208;21.192;2023-04-08T20:40:23;19.80;;;12.30;;
39176;SDS011;24904;52.208;21.192;2023-04-08T20:45:26;19.60;;;12.60;;
39176;SDS011;24904;52.208;21.192;2023-04-08T20:50:31;15.80;;;11.50;;
39176;SDS011;24904;52.208;21.192;2023-04-08T20:55:34;19.70;;;13.70;;
39176;SDS011;24904;52.208;21.192;2023-04-08T21:00:37;18.40;;;12.90;;
39176;SDS011;24904;52.208;21.192;2023-04-08T21:05:40;16.90;;;12.50;;
39176;SDS011;24904;52.208;21.192;2023-04-08T21:10:43;20.50;;;14.00;;
39176;SDS011;24904;52.208;21.192;2023-04-08T21:15:46;21.80;;;14.30;;
39176;SDS011;24904;52.208;21.192;2023-04-08T21:20:49;20.00;;;14.20;;
39176;SDS011;24904;52.208;21.192;2023-04-08T21:25:52;23.00;;;14.80;;
39176;SDS011;24904;52.208;21.192;2023-04-08T21:30:55;23.00;;;14.90;;
39176;SDS011;24904;52.208;21.192;2023-04-08T21:36:07;18.60;;;13.40;;
39176;SDS011;24904;52.208;21.192;2023-04-08T21:41:10;22.80;;;13.40;;
39176;SDS011;24904;52.208;21.192;2023-04-08T21:46:13;17.40;;;12.50;;
39176;SDS011;24904;52.208;21.192;2023-04-08T21:51:16;17.60;;;12.50;;
39176;SDS011;24904;52.208;21.192;2023-04-08T21:56:20;18.80;;;12.90;;
39176;SDS011;24904;52.208;21.192;2023-04-08T22:01:24;19.20;;;13.20;;
39176;SDS011;24904;52.208;21.192;2023-04-08T22:06:28;16.10;;;11.80;;
39176;SDS011;24904;52.208;21.192;2023-04-08T22:11:31;16.40;;;12.20;;
39176;SDS011;24904;52.208;21.192;2023-04-08T22:16:34;20.40;;;12.60;;
39176;SDS011;24904;52.208;21.192;2023-04-08T22:21:37;16.80;;;12.40;;
39176;SDS011;24904;52.208;21.192;2023-04-08T22:26:40;19.50;;;13.40;;
39176;SDS011;24904;52.208;21.192;2023-04-08T22:31:43;20.70;;;14.10;;
39176;SDS011;24904;52.208;21.192;2023-04-08T22:36:46;24.60;;;15.40;;
39176;SDS011;24904;52.208;21.192;2023-04-08T22:41:49;23.90;;;15.50;;
39176;SDS011;24904;52.208;21.192;2023-04-08T22:46:52;25.10;;;16.90;;
39176;SDS011;24904;52.208;21.192;2023-04-08T22:51:55;26.80;;;17.60;;
39176;SDS011;24904;52.208;21.192;2023-04-08T22:56:58;24.20;;;16.20;;
39176;SDS011;24904;52.208;21.192;2023-04-08T23:02:02;26.80;;;18.50;;
39176;SDS011;24904;52.208;21.192;2023-04-08T23:07:05;28.10;;;19.20;;
39176;SDS011;24904;52.208;21.192;2023-04-08T23:12:08;28.70;;;19.40;;
39176;SDS011;24904;52.208;21.192;2023-04-08T23:17:11;33.00;;;21.40;;
39176;SDS011;24904;52.208;21.192;2023-04-08T23:22:14;31.40;;;20.70;;
39176;SDS011;24904;52.208;21.192;2023-04-08T23:27:17;26.10;;;18.40;;
39176;SDS011;24904;52.208;21.192;2023-04-08T23:32:20;25.00;;;16.50;;
39176;SDS011;24904;52.208;21.192;2023-04-08T23:37:23;29.30;;;17.60;;
39176;SDS011;24904;52.208;21.192;2023-04-08T23:42:26;22.70;;;16.20;;
39176;SDS011;24904;52.208;21.192;2023-04-08T23:47:29;23.00;;;16.10;;
39176;SDS011;24904;52.208;21.192;2023-04-08T23:52:32;23.70;;;16.00;;
39176;SDS011;24904;52.208;21.192;2023-04-08T23:57:35;22.00;;;15.40;;
